createdAt,value
2024-01-28T00:02:24.598Z,85.83
2024-01-28T00:04:56.970Z,86.17
2024-01-28T00:07:29.295Z,85.90
2024-01-28T00:10:01.813Z,86.17
2024-01-28T00:12:34.426Z,86.31
2024-01-28T00:15:08.475Z,86.51
2024-01-28T00:17:40.931Z,86.55
2024-01-28T00:20:15.824Z,85.78
2024-01-28T00:22:48.177Z,86.07
2024-01-28T00:25:20.568Z,86.02
2024-01-28T00:27:52.974Z,85.98
2024-01-28T00:30:31.455Z,86.15
2024-01-28T00:33:04.023Z,86.19
2024-01-28T00:35:36.473Z,86.57
2024-01-28T00:38:10.700Z,86.65
2024-01-28T00:40:43.118Z,86.63
2024-01-28T00:43:15.464Z,86.62
2024-01-28T00:45:48.076Z,86.79
2024-01-28T00:48:20.612Z,86.56
2024-01-28T00:50:53.201Z,86.40
2024-01-28T00:53:25.578Z,86.48
2024-01-28T00:55:58.047Z,86.64
2024-01-28T00:58:30.965Z,86.24
2024-01-28T01:01:03.490Z,86.57
2024-01-28T01:03:35.996Z,86.69
2024-01-28T01:06:09.308Z,86.57
2024-01-28T01:08:41.663Z,86.69
2024-01-28T01:11:14.377Z,86.72
2024-01-28T01:13:46.733Z,86.70
2024-01-28T01:16:19.392Z,86.56
2024-01-28T01:18:52.035Z,86.53
2024-01-28T01:21:24.598Z,86.97
2024-01-28T01:23:57.549Z,86.76
2024-01-28T01:26:29.939Z,87.08
2024-01-28T01:29:02.305Z,87.33
2024-01-28T01:31:34.691Z,87.23
2024-01-28T01:34:07.496Z,87.19
2024-01-28T01:36:40.061Z,87.18
2024-01-28T01:39:13.594Z,87.07
2024-01-28T01:41:46.142Z,87.01
2024-01-28T01:44:18.911Z,87.03
2024-01-28T01:46:51.302Z,86.86
2024-01-28T01:49:23.921Z,86.95
2024-01-28T01:51:57.132Z,86.87
2024-01-28T01:54:29.956Z,87.33
2024-01-28T01:57:03.601Z,87.34
2024-01-28T01:59:36.905Z,87.30
2024-01-28T02:02:12.105Z,87.66
2024-01-28T02:04:45.178Z,87.34
2024-01-28T02:07:17.699Z,87.38
2024-01-28T02:09:50.147Z,87.21
2024-01-28T02:12:22.942Z,87.26
2024-01-28T02:15:06.875Z,87.26
2024-01-28T02:17:39.613Z,87.76
2024-01-28T02:20:14.643Z,87.82
2024-01-28T02:22:47.118Z,87.63
2024-01-28T02:25:19.487Z,87.80
2024-01-28T02:27:52.146Z,87.61
2024-01-28T02:30:24.507Z,87.34
2024-01-28T02:32:57.194Z,87.47
2024-01-28T02:35:29.635Z,87.27
2024-01-28T02:38:02.201Z,87.20
2024-01-28T02:40:35.153Z,87.43
2024-01-28T02:43:08.814Z,87.45
2024-01-28T02:45:41.198Z,87.81
2024-01-28T02:48:13.715Z,87.96
2024-01-28T02:50:46.254Z,87.98
2024-01-28T02:53:19.053Z,87.97
2024-01-28T02:55:51.419Z,87.62
2024-01-28T02:58:23.805Z,87.57
2024-01-28T03:00:56.398Z,87.65
2024-01-28T03:03:29.495Z,87.54
2024-01-28T03:06:02.191Z,87.86
2024-01-28T03:08:35.267Z,88.02
2024-01-28T03:11:07.790Z,88.04
2024-01-28T03:13:40.863Z,88.14
2024-01-28T03:16:13.138Z,88.41
2024-01-28T03:18:45.626Z,88.23
2024-01-28T03:21:18.139Z,87.89
2024-01-28T03:23:50.557Z,88.08
2024-01-28T03:26:22.945Z,87.72
2024-01-28T03:28:55.343Z,87.95
2024-01-28T03:31:27.895Z,87.88
2024-01-28T03:34:00.683Z,88.27
2024-01-28T03:36:33.153Z,88.31
2024-01-28T03:39:06.617Z,88.52
2024-01-28T03:41:39.723Z,88.40
2024-01-28T03:44:12.949Z,88.30
2024-01-28T03:46:45.278Z,88.17
2024-01-28T03:49:17.719Z,88.20
2024-01-28T03:51:50.585Z,88.19
2024-01-28T03:54:23.098Z,87.96
2024-01-28T03:56:55.456Z,88.20
2024-01-28T03:59:28.989Z,88.41
2024-01-28T04:02:02.821Z,88.42
2024-01-28T04:04:35.355Z,88.69
2024-01-28T04:07:07.908Z,88.42
2024-01-28T04:09:42.312Z,88.67
2024-01-28T04:12:14.819Z,88.65
2024-01-28T04:14:47.162Z,88.46
2024-01-28T04:17:19.728Z,88.17
2024-01-28T04:19:53.456Z,88.35
2024-01-28T04:22:26.043Z,88.56
2024-01-28T04:24:58.445Z,88.48
2024-01-28T04:27:30.863Z,88.21
2024-01-28T04:30:04.021Z,88.57
2024-01-28T04:32:36.442Z,88.92
2024-01-28T04:35:12.527Z,89.06
2024-01-28T04:37:44.976Z,89.07
2024-01-28T04:40:17.813Z,89.20
2024-01-28T04:42:50.148Z,88.69
2024-01-28T04:45:22.546Z,88.20
2024-01-28T04:47:55.007Z,88.45
2024-01-28T04:50:27.600Z,88.46
2024-01-28T04:52:59.901Z,88.37
2024-01-28T04:55:32.452Z,88.76
2024-01-28T04:58:04.933Z,88.87
2024-01-28T05:00:37.351Z,88.98
2024-01-28T05:03:10.101Z,89.05
2024-01-28T05:05:42.739Z,89.39
2024-01-28T05:08:15.701Z,89.02
2024-01-28T05:10:48.096Z,88.78
2024-01-28T05:13:20.557Z,88.71
2024-01-28T05:15:53.011Z,88.70
2024-01-28T05:18:25.837Z,88.74
2024-01-28T05:20:58.676Z,88.96
2024-01-28T05:23:31.034Z,89.43
2024-01-28T05:26:03.642Z,89.44
2024-01-28T05:28:36.253Z,89.49
2024-01-28T05:31:09.432Z,89.70
2024-01-28T05:33:42.558Z,89.23
2024-01-28T05:36:18.455Z,89.17
2024-01-28T05:38:50.751Z,89.33
2024-01-28T05:41:23.207Z,89.13
2024-01-28T05:43:55.550Z,89.07
2024-01-28T05:46:27.897Z,89.51
2024-01-28T05:49:00.270Z,89.51
2024-01-28T05:51:35.642Z,89.89
2024-01-28T05:54:08.432Z,89.80
2024-01-28T05:56:40.966Z,89.96
2024-01-28T05:59:13.300Z,89.59
2024-01-28T06:01:45.812Z,89.38
2024-01-28T06:04:18.217Z,89.52
2024-01-28T06:06:50.784Z,89.61
2024-01-28T06:09:23.313Z,89.30
2024-01-28T06:11:55.675Z,89.48
2024-01-28T06:14:28.981Z,89.43
2024-01-28T06:17:01.361Z,89.74
2024-01-28T06:19:33.762Z,89.89
2024-01-28T06:22:06.480Z,89.99
2024-01-28T06:24:43.444Z,89.67
2024-01-28T06:27:16.426Z,89.60
2024-01-28T06:29:48.898Z,89.76
2024-01-28T06:32:23.150Z,89.82
2024-01-28T06:34:55.660Z,89.82
2024-01-28T06:37:28.530Z,90.01
2024-01-28T06:40:01.515Z,90.22
2024-01-28T06:42:34.105Z,90.25
2024-01-28T06:45:09.221Z,90.49
2024-01-28T06:47:43.100Z,90.34
2024-01-28T06:50:15.806Z,89.82
2024-01-28T06:52:49.277Z,89.92
2024-01-28T06:55:21.673Z,89.74
2024-01-28T06:57:53.981Z,90.14
2024-01-28T07:00:26.687Z,90.20
2024-01-28T07:02:59.945Z,90.45
2024-01-28T07:05:34.091Z,90.38
2024-01-28T07:08:08.869Z,90.75
2024-01-28T07:10:41.254Z,90.79
2024-01-28T07:13:13.692Z,90.31
2024-01-28T07:15:46.190Z,90.44
2024-01-28T07:18:19.442Z,90.27
2024-01-28T07:20:51.764Z,90.31
2024-01-28T07:23:24.307Z,90.13
2024-01-28T07:25:56.659Z,90.38
2024-01-28T07:28:29.186Z,90.16
2024-01-28T07:31:01.738Z,90.36
2024-01-28T07:33:34.339Z,90.74
2024-01-28T07:36:07.166Z,91.09
2024-01-28T07:38:39.507Z,91.04
2024-01-28T07:41:15.848Z,91.05
2024-01-28T07:43:48.418Z,91.06
2024-01-28T07:46:22.984Z,90.53
2024-01-28T07:48:55.397Z,90.72
2024-01-28T07:51:28.210Z,90.60
2024-01-28T07:54:00.586Z,90.66
2024-01-28T07:56:33.074Z,90.91
2024-01-28T07:59:05.438Z,91.17
2024-01-28T08:01:38.147Z,90.97
2024-01-28T08:04:10.783Z,90.96
2024-01-28T08:06:43.227Z,91.06
2024-01-28T08:09:15.719Z,90.86
2024-01-28T08:11:48.191Z,90.59
2024-01-28T08:14:20.550Z,90.79
2024-01-28T08:16:52.932Z,90.81
2024-01-28T08:19:25.711Z,90.94
2024-01-28T08:21:58.200Z,90.94
2024-01-28T08:24:30.641Z,90.98
2024-01-28T08:27:03.081Z,91.26
2024-01-28T08:29:35.601Z,91.52
2024-01-28T08:32:08.930Z,91.37
2024-01-28T08:34:41.326Z,90.82
2024-01-28T08:37:13.673Z,90.73
2024-01-28T08:39:46.409Z,90.80
2024-01-28T08:42:20.460Z,90.95
2024-01-28T08:44:53.050Z,91.11
2024-01-28T08:47:25.495Z,91.22
2024-01-28T08:49:58.678Z,91.43
2024-01-28T08:52:31.113Z,91.45
2024-01-28T08:55:03.969Z,91.48
2024-01-28T08:57:36.558Z,91.10
2024-01-28T09:00:13.640Z,91.28
2024-01-28T09:02:46.076Z,91.43
2024-01-28T09:05:19.017Z,91.26
2024-01-28T09:07:53.058Z,91.50
2024-01-28T09:10:25.487Z,91.80
2024-01-28T09:12:57.918Z,91.66
2024-01-28T09:15:30.419Z,91.86
2024-01-28T09:18:03.538Z,91.72
2024-01-28T09:20:35.944Z,91.76
2024-01-28T09:23:08.392Z,91.41
2024-01-28T09:25:40.847Z,91.07
2024-01-28T09:28:13.270Z,91.34
2024-01-28T09:30:46.175Z,91.41
2024-01-28T09:33:18.717Z,91.40
2024-01-28T09:35:53.707Z,91.45
2024-01-28T09:38:24.393Z,91.60
2024-01-28T09:40:56.793Z,92.13
2024-01-28T09:43:32.085Z,92.11
2024-01-28T09:46:06.975Z,92.18
2024-01-28T09:48:40.114Z,92.03
2024-01-28T09:51:13.534Z,91.96
2024-01-28T09:53:46.254Z,92.15
2024-01-28T09:56:18.835Z,91.98
2024-01-28T09:58:51.800Z,91.92
2024-01-28T10:01:25.773Z,92.40
2024-01-28T10:04:01.508Z,92.72
2024-01-28T10:06:34.435Z,92.53
2024-01-28T10:09:07.131Z,92.40
2024-01-28T10:11:39.671Z,92.07
2024-01-28T10:14:12.375Z,92.10
2024-01-28T10:16:47.503Z,92.34
2024-01-28T10:19:20.032Z,92.33
2024-01-28T10:21:53.227Z,92.11
2024-01-28T10:24:26.489Z,92.44
2024-01-28T10:27:01.806Z,92.64
2024-01-28T10:29:34.722Z,92.92
2024-01-28T10:32:08.249Z,93.08
2024-01-28T10:34:41.200Z,92.62
2024-01-28T10:37:16.809Z,92.31
2024-01-28T10:39:53.392Z,92.47
2024-01-28T10:42:29.479Z,92.72
2024-01-28T10:45:02.710Z,92.85
2024-01-28T10:47:37.562Z,93.25
2024-01-28T10:50:10.422Z,93.30
2024-01-28T10:52:43.545Z,93.34
2024-01-28T10:55:17.444Z,93.33
2024-01-28T10:57:50.745Z,93.42
2024-01-28T11:00:23.378Z,93.18
2024-01-28T11:02:58.052Z,93.13
2024-01-28T11:05:29.849Z,93.09
2024-01-28T11:08:02.758Z,93.18
2024-01-28T11:10:35.547Z,93.25
2024-01-28T11:13:09.915Z,93.49
2024-01-28T11:15:45.361Z,93.49
2024-01-28T11:18:19.198Z,93.43
2024-01-28T11:20:51.683Z,93.53
2024-01-28T11:23:24.409Z,93.59
2024-01-28T11:26:00.012Z,93.63
2024-01-28T11:28:50.293Z,93.21
2024-01-28T11:31:33.117Z,93.25
2024-01-28T11:34:22.699Z,92.91
2024-01-28T11:36:56.421Z,92.99
2024-01-28T11:39:41.560Z,93.03
2024-01-28T11:42:14.290Z,93.04
2024-01-28T11:44:49.527Z,93.58
2024-01-28T11:47:23.813Z,93.30
2024-01-28T11:49:57.627Z,93.31
2024-01-28T11:52:30.568Z,93.26
2024-01-28T11:55:13.005Z,93.27
2024-01-28T11:57:48.602Z,92.81
2024-01-28T12:00:22.411Z,92.97
2024-01-28T12:02:55.327Z,92.89
2024-01-28T12:05:27.728Z,93.26
2024-01-28T12:08:05.005Z,93.06
2024-01-28T12:10:39.659Z,93.15
2024-01-28T12:13:13.590Z,93.46
2024-01-28T12:15:46.107Z,93.25
2024-01-28T12:18:18.766Z,92.97
2024-01-28T12:20:54.615Z,92.85
2024-01-28T12:23:27.084Z,92.87
2024-01-28T12:26:00.253Z,92.51
2024-01-28T12:28:32.817Z,92.88
2024-01-28T12:31:06.661Z,92.93
2024-01-28T12:33:40.474Z,92.94
2024-01-28T12:36:13.196Z,93.36
2024-01-28T12:38:45.600Z,93.42
2024-01-28T12:41:17.910Z,93.34
2024-01-28T12:43:53.386Z,93.08
2024-01-28T12:46:38.517Z,92.70
2024-01-28T12:49:12.980Z,92.82
2024-01-28T12:51:46.017Z,92.73
2024-01-28T12:54:19.012Z,92.49
2024-01-28T12:56:52.127Z,92.76
2024-01-28T12:59:24.790Z,92.82
2024-01-28T13:01:57.354Z,92.97
2024-01-28T13:04:30.720Z,92.90
2024-01-28T13:07:03.354Z,93.05
2024-01-28T13:09:35.764Z,92.51
2024-01-28T13:12:11.049Z,92.25
2024-01-28T13:14:43.451Z,92.20
2024-01-28T13:17:15.909Z,92.02
2024-01-28T13:19:51.547Z,92.57
2024-01-28T13:22:24.762Z,92.37
2024-01-28T13:24:57.530Z,92.37
2024-01-28T13:27:31.076Z,92.68
2024-01-28T13:30:04.250Z,92.65
2024-01-28T13:32:39.285Z,92.72
2024-01-28T13:35:12.614Z,92.21
2024-01-28T13:37:45.735Z,91.83
2024-01-28T13:40:18.215Z,91.90
2024-01-28T13:42:50.584Z,92.17
2024-01-28T13:45:22.943Z,91.87
2024-01-28T13:47:55.408Z,92.42
2024-01-28T13:50:28.029Z,92.27
2024-01-28T13:53:00.916Z,92.31
2024-01-28T13:55:33.592Z,92.45
2024-01-28T13:58:06.278Z,92.47
2024-01-28T14:00:38.748Z,92.10
2024-01-28T14:03:13.193Z,91.85
2024-01-28T14:05:45.767Z,91.72
2024-01-28T14:08:18.291Z,91.82
2024-01-28T14:10:50.648Z,92.19
2024-01-28T14:13:23.096Z,92.35
2024-01-28T14:15:55.742Z,92.49
2024-01-28T14:18:28.176Z,91.99
2024-01-28T14:21:00.544Z,92.38
2024-01-28T14:23:34.655Z,92.25
2024-01-28T14:26:09.061Z,91.40
2024-01-28T14:28:41.599Z,91.44
2024-01-28T14:31:14.558Z,91.31
2024-01-28T14:33:47.001Z,91.42
2024-01-28T14:36:19.506Z,91.56
2024-01-28T14:38:52.460Z,91.92
2024-01-28T14:41:24.834Z,91.72
2024-01-28T14:43:57.284Z,91.89
2024-01-28T14:46:29.795Z,91.85
2024-01-28T14:49:03.156Z,91.58
2024-01-28T14:51:40.420Z,91.45
2024-01-28T14:54:13.778Z,91.05
2024-01-28T14:56:46.242Z,91.29
2024-01-28T14:59:18.670Z,91.64
2024-01-28T15:01:51.057Z,91.91
2024-01-28T15:04:23.614Z,91.92
2024-01-28T15:06:56.774Z,91.58
2024-01-28T15:09:29.402Z,91.60
2024-01-28T15:12:01.912Z,91.39
2024-01-28T15:14:35.020Z,91.15
2024-01-28T15:17:08.546Z,91.18
2024-01-28T15:19:41.017Z,91.13
2024-01-28T15:22:13.919Z,91.50
2024-01-28T15:24:46.648Z,91.58
2024-01-28T15:27:19.140Z,91.77
2024-01-28T15:29:51.811Z,91.47
2024-01-28T15:32:24.290Z,91.78
2024-01-28T15:34:57.680Z,91.61
2024-01-28T15:37:33.500Z,91.51
2024-01-28T15:40:07.138Z,91.09
2024-01-28T15:42:39.543Z,91.02
2024-01-28T15:45:14.375Z,91.35
2024-01-28T15:47:48.604Z,91.29
2024-01-28T15:50:21.184Z,91.26
2024-01-28T15:52:53.571Z,91.60
2024-01-28T15:55:31.538Z,91.39
2024-01-28T15:58:04.909Z,91.35
2024-01-28T16:00:37.487Z,91.49
2024-01-28T16:03:10.237Z,91.13
2024-01-28T16:05:42.828Z,90.89
2024-01-28T16:08:15.447Z,90.88
2024-01-28T16:10:48.029Z,90.87
2024-01-28T16:13:20.806Z,91.07
2024-01-28T16:15:53.272Z,91.18
2024-01-28T16:18:25.845Z,91.16
2024-01-28T16:20:58.858Z,91.15
2024-01-28T16:23:31.239Z,91.21
2024-01-28T16:26:05.704Z,90.82
2024-01-28T16:28:38.123Z,90.68
2024-01-28T16:31:10.623Z,90.24
2024-01-28T16:33:43.092Z,90.13
2024-01-28T16:36:17.662Z,90.18
2024-01-28T16:38:50.484Z,90.36
2024-01-28T16:43:55.303Z,90.40
2024-01-28T16:46:27.769Z,90.23
2024-01-28T16:49:00.314Z,90.41
2024-01-28T16:51:32.874Z,90.21
2024-01-28T16:54:05.504Z,90.11
2024-01-28T16:56:38.111Z,89.80
2024-01-28T16:59:10.843Z,89.45
2024-01-28T17:01:44.630Z,89.25
2024-01-28T17:04:17.519Z,89.20
2024-01-28T17:06:50.120Z,89.27
2024-01-28T17:09:22.511Z,89.49
2024-01-28T17:11:55.081Z,89.62
2024-01-28T17:14:27.460Z,89.79
2024-01-28T17:16:59.968Z,89.74
2024-01-28T17:19:33.130Z,89.87
2024-01-28T17:22:06.014Z,89.60
2024-01-28T17:24:38.478Z,89.24
2024-01-28T17:27:10.881Z,89.09
2024-01-28T17:29:43.610Z,89.09
2024-01-28T17:32:16.121Z,89.07
2024-01-28T17:34:50.746Z,88.90
2024-01-28T17:37:22.315Z,89.09
2024-01-28T17:39:55.546Z,89.09
2024-01-28T17:42:30.065Z,89.32
2024-01-28T17:45:02.959Z,89.14
2024-01-28T17:47:37.579Z,89.35
2024-01-28T17:50:12.761Z,89.29
2024-01-28T17:52:45.361Z,89.15
2024-01-28T17:55:18.512Z,89.07
2024-01-28T17:57:51.017Z,88.74
2024-01-28T18:00:25.880Z,88.80
2024-01-28T18:02:58.320Z,88.80
2024-01-28T18:05:31.366Z,89.06
2024-01-28T18:08:04.532Z,89.20
2024-01-28T18:10:37.031Z,89.38
2024-01-28T18:13:09.623Z,89.32
2024-01-28T18:15:42.116Z,89.21
2024-01-28T18:18:15.472Z,89.09
2024-01-28T18:20:47.991Z,88.88
2024-01-28T18:23:22.034Z,88.36
2024-01-28T18:25:54.622Z,88.20
2024-01-28T18:28:27.061Z,87.85
2024-01-28T18:30:59.477Z,88.06
2024-01-28T18:33:35.652Z,88.42
2024-01-28T18:36:10.358Z,88.22
2024-01-28T18:38:43.027Z,88.46
2024-01-28T18:41:15.764Z,88.68
2024-01-28T18:43:49.750Z,88.47
2024-01-28T18:46:22.119Z,88.26
2024-01-28T18:48:54.615Z,88.36
2024-01-28T18:51:27.042Z,87.74
2024-01-28T18:53:59.451Z,87.77
2024-01-28T18:56:31.819Z,87.82
2024-01-28T18:59:06.355Z,88.22
2024-01-28T19:01:39.008Z,88.18
2024-01-28T19:04:11.404Z,88.56
2024-01-28T19:06:43.870Z,88.21
2024-01-28T19:09:16.490Z,87.99
2024-01-28T19:11:49.334Z,88.09
2024-01-28T19:14:21.834Z,87.83
2024-01-28T19:16:54.365Z,87.49
2024-01-28T19:19:28.540Z,87.56
2024-01-28T19:22:01.281Z,87.26
2024-01-28T19:24:34.735Z,87.38
2024-01-28T19:27:09.072Z,87.39
2024-01-28T19:29:42.050Z,87.68
2024-01-28T19:32:14.491Z,87.66
2024-01-28T19:34:46.991Z,87.88
2024-01-28T19:37:19.965Z,87.77
2024-01-28T19:39:52.292Z,87.72
2024-01-28T19:42:26.110Z,87.87
2024-01-28T19:44:58.788Z,87.54
2024-01-28T19:47:31.316Z,87.17
2024-01-28T19:50:04.244Z,87.06
2024-01-28T19:52:36.849Z,87.05
2024-01-28T19:55:10.355Z,86.83
2024-01-28T19:57:42.867Z,87.29
2024-01-28T20:00:17.200Z,87.40
2024-01-28T20:02:51.431Z,87.40
2024-01-28T20:05:24.034Z,87.56
2024-01-28T20:07:56.513Z,87.49
2024-01-28T20:10:28.905Z,87.41
2024-01-28T20:13:01.507Z,87.16
2024-01-28T20:15:34.261Z,87.18
2024-01-28T20:18:07.452Z,86.76
2024-01-28T20:20:40.167Z,86.69
2024-01-28T20:23:15.043Z,86.65
2024-01-28T20:25:53.993Z,86.50
2024-01-28T20:28:28.270Z,87.08
2024-01-28T20:31:00.815Z,86.84
2024-01-28T20:33:33.346Z,86.77
2024-01-28T20:36:06.387Z,86.80
2024-01-28T20:38:39.249Z,86.70
2024-01-28T20:41:11.756Z,86.85
2024-01-28T20:43:44.648Z,86.95
2024-01-28T20:46:17.128Z,86.39
2024-01-28T20:48:53.169Z,86.04
2024-01-28T20:51:25.813Z,86.10
2024-01-28T20:53:58.257Z,86.30
2024-01-28T20:56:30.651Z,86.23
2024-01-28T20:59:03.094Z,86.21
2024-01-28T21:01:35.766Z,86.20
2024-01-28T21:04:08.381Z,86.36
2024-01-28T21:06:41.075Z,86.48
2024-01-28T21:09:13.421Z,86.37
2024-01-28T21:11:45.821Z,86.33
2024-01-28T21:14:18.383Z,86.00
2024-01-28T21:16:51.642Z,85.76
2024-01-28T21:19:29.190Z,85.32
2024-01-28T21:22:29.365Z,85.96
2024-01-28T21:25:01.938Z,85.80
2024-01-28T21:27:36.290Z,85.47
2024-01-28T21:30:11.298Z,86.15
2024-01-28T21:32:43.945Z,86.05
2024-01-28T21:35:16.601Z,86.00
2024-01-28T21:37:49.143Z,86.00
2024-01-28T21:40:21.467Z,86.22
2024-01-28T21:42:53.913Z,86.13
2024-01-28T21:45:26.387Z,85.61
2024-01-28T21:47:58.874Z,85.52
2024-01-28T21:50:31.241Z,85.58
2024-01-28T21:53:03.590Z,85.38
2024-01-28T21:55:36.077Z,85.75
2024-01-28T21:58:08.623Z,85.87
2024-01-28T22:00:41.112Z,85.69
2024-01-28T22:03:13.591Z,85.63
2024-01-28T22:05:46.561Z,85.90
2024-01-28T22:08:19.406Z,85.79
2024-01-28T22:10:51.851Z,85.73
2024-01-28T22:13:24.429Z,85.85
2024-01-28T22:15:56.854Z,85.40
2024-01-28T22:18:30.082Z,85.20
2024-01-28T22:21:03.303Z,84.92
2024-01-28T22:23:35.689Z,85.00
2024-01-28T22:26:08.204Z,85.18
2024-01-28T22:28:42.553Z,85.31
2024-01-28T22:31:15.242Z,85.53
2024-01-28T22:33:48.303Z,85.41
2024-01-28T22:36:20.639Z,85.05
2024-01-28T22:38:53.168Z,85.46
2024-01-28T22:41:25.575Z,85.15
2024-01-28T22:43:59.249Z,84.98
2024-01-28T22:46:31.690Z,84.74
2024-01-28T22:49:04.234Z,84.36
2024-01-28T22:51:38.102Z,84.69
2024-01-28T22:54:11.461Z,84.47
2024-01-28T22:56:44.215Z,84.58
2024-01-28T22:59:16.531Z,84.76
2024-01-28T23:01:50.429Z,84.66
2024-01-28T23:04:23.060Z,84.83
2024-01-28T23:06:55.493Z,84.89
2024-01-28T23:09:28.214Z,84.51
2024-01-28T23:12:01.689Z,84.40
2024-01-28T23:14:34.125Z,84.55
2024-01-28T23:17:06.893Z,84.29
2024-01-28T23:19:39.344Z,84.04
2024-01-28T23:22:12.151Z,84.06
2024-01-28T23:24:44.647Z,83.78
2024-01-28T23:27:17.037Z,84.00
2024-01-28T23:29:49.654Z,84.06
2024-01-28T23:32:22.012Z,84.31
2024-01-28T23:34:54.542Z,84.07
2024-01-28T23:37:27.159Z,84.11
2024-01-28T23:39:59.928Z,84.16
2024-01-28T23:42:32.375Z,84.12
2024-01-28T23:45:05.298Z,83.99
2024-01-28T23:47:37.679Z,83.72
2024-01-28T23:50:11.923Z,83.51
2024-01-28T23:52:44.500Z,83.33
2024-01-28T23:55:16.879Z,83.27
2024-01-28T23:57:49.326Z,83.51
